Time;durP1;ratioP1;P1;durP2;ratioP2;P2;SDS_P1;SDS_P2;PMS_P1;PMS_P2;Temp;Humidity;BMP_temperature;BMP_pressure;BME280_temperature;BME280_humidity;BME280_pressure;Samples;Min_cycle;Max_cycle;Signal;HPM_P1;HPM_P2
2022/09/26 00:00:35;;;;;;;3.33;1.20;;;16.30;58.10;;;;;;5048808;28;20036;-78
2022/09/26 00:03:01;;;;;;;2.80;1.70;;;16.30;58.10;;;;;;5054007;28;20047;-77
2022/09/26 00:05:27;;;;;;;3.15;1.40;;;16.30;58.30;;;;;;5047227;28;20032;-78
2022/09/26 00:07:53;;;;;;;3.28;1.15;;;16.30;58.40;;;;;;5051478;28;20035;-79
2022/09/26 00:10:20;;;;;;;2.13;1.33;;;16.30;58.50;;;;;;5048436;28;20565;-76
2022/09/26 00:12:47;;;;;;;2.72;1.63;;;16.30;58.60;;;;;;5049108;28;20063;-77
2022/09/26 00:15:14;;;;;;;1.77;0.90;;;16.30;58.70;;;;;;5047322;28;20021;-79
2022/09/26 00:17:40;;;;;;;2.15;0.95;;;16.30;58.70;;;;;;5047237;28;20117;-78
2022/09/26 00:20:06;;;;;;;2.08;1.20;;;16.30;58.90;;;;;;5043776;28;20024;-78
2022/09/26 00:22:32;;;;;;;2.97;1.40;;;16.20;58.80;;;;;;5048392;28;20058;-77
2022/09/26 00:24:58;;;;;;;3.10;1.00;;;16.20;59.00;;;;;;5046664;28;20101;-78
2022/09/26 00:27:24;;;;;;;9.68;2.53;;;16.20;59.10;;;;;;5047516;28;20031;-78
2022/09/26 00:29:50;;;;;;;5.97;1.30;;;16.20;59.30;;;;;;5049423;28;20224;-76
2022/09/26 00:32:16;;;;;;;4.38;1.55;;;16.20;59.40;;;;;;5036660;28;20028;-75
2022/09/26 00:34:41;;;;;;;3.53;1.10;;;16.20;59.50;;;;;;5045217;28;20033;-77
2022/09/26 00:37:07;;;;;;;2.85;1.10;;;16.20;59.60;;;;;;5047812;28;20032;-77
2022/09/26 00:39:33;;;;;;;3.33;1.75;;;16.20;59.70;;;;;;5051163;28;20032;-76
2022/09/26 00:41:59;;;;;;;4.38;1.23;;;16.20;59.90;;;;;;5038999;28;20028;-78
2022/09/26 00:44:47;;;;;;;4.85;1.17;;;16.20;60.00;;;;;;5044210;28;20049;-77
2022/09/26 00:47:28;;;;;;;3.10;1.65;;;16.20;60.20;;;;;;5041870;28;20400;-77
2022/09/26 00:49:58;;;;;;;5.15;1.52;;;16.20;60.20;;;;;;5044696;28;20033;-77
2022/09/26 00:52:32;;;;;;;3.00;1.02;;;16.20;60.20;;;;;;5049872;28;20083;-77
2022/09/26 00:55:03;;;;;;;2.08;1.15;;;16.20;60.40;;;;;;5038562;28;20396;-77
2022/09/26 00:57:35;;;;;;;4.55;1.20;;;16.20;60.50;;;;;;5048925;28;20047;-77
2022/09/26 01:00:08;;;;;;;2.25;1.30;;;16.20;60.60;;;;;;5049252;28;20037;-77
2022/09/26 01:02:36;;;;;;;4.85;1.77;;;16.30;60.90;;;;;;5055030;28;20399;-76
2022/09/26 01:05:05;;;;;;;4.57;1.33;;;16.20;60.80;;;;;;5049699;28;20402;-77
2022/09/26 01:07:33;;;;;;;5.15;1.52;;;16.30;61.10;;;;;;5046595;28;20063;-77
2022/09/26 01:10:04;;;;;;;2.75;1.38;;;16.30;61.20;;;;;;5048381;28;20017;-78
2022/09/26 01:12:31;;;;;;;3.92;1.23;;;16.30;61.30;;;;;;5040110;28;20029;-78
2022/09/26 01:14:58;;;;;;;3.25;1.30;;;16.30;61.40;;;;;;5033029;28;20037;-77
2022/09/26 01:17:26;;;;;;;5.25;1.30;;;16.20;61.30;;;;;;5051216;28;20086;-76
2022/09/26 01:20:19;;;;;;;5.43;1.25;;;16.30;61.70;;;;;;5029366;28;20488;-77
2022/09/26 01:23:23;;;;;;;3.80;1.30;;;16.20;61.80;;;;;;5050755;28;20037;-77
2022/09/26 01:26:09;;;;;;;;;;;16.30;62.10;;;;;;5026157;28;20069;-77
2022/09/26 01:28:47;;;;;;;2.90;1.10;;;16.20;61.60;;;;;;5051339;28;19985;-76
2022/09/26 01:31:30;;;;;;;6.15;1.38;;;16.30;61.80;;;;;;5051149;28;20617;-77
2022/09/26 01:34:22;;;;;;;3.72;1.23;;;16.30;62.00;;;;;;5050454;28;20032;-78
2022/09/26 01:37:10;;;;;;;3.05;1.35;;;16.30;62.20;;;;;;5034189;28;20036;-76
2022/09/26 01:39:56;;;;;;;3.75;1.10;;;16.30;62.30;;;;;;5048731;28;20469;-77
2022/09/26 01:42:51;;;;;;;3.50;1.25;;;16.30;62.30;;;;;;5044028;28;20029;-76
2022/09/26 01:45:20;;;;;;;4.32;1.35;;;16.30;62.40;;;;;;5038060;28;20033;-77
2022/09/26 01:47:54;;;;;;;7.70;1.40;;;16.30;62.30;;;;;;5052973;28;20489;-76
2022/09/26 01:50:23;;;;;;;4.28;1.42;;;16.30;62.50;;;;;;5047764;28;20396;-77
2022/09/26 01:53:08;;;;;;;5.32;1.33;;;16.30;62.50;;;;;;5055324;28;20096;-77
2022/09/26 01:55:41;;;;;;;5.65;1.33;;;16.30;62.70;;;;;;5036465;28;20114;-78
2022/09/26 01:58:21;;;;;;;4.00;1.30;;;16.30;62.70;;;;;;5056319;28;20036;-78
2022/09/26 02:00:50;;;;;;;3.47;1.17;;;16.30;62.80;;;;;;5058924;28;20515;-79
2022/09/26 02:03:26;;;;;;;4.60;1.40;;;16.40;63.00;;;;;;5061402;28;20660;-77
2022/09/26 02:06:09;;;;;;;5.80;1.55;;;16.40;63.00;;;;;;5055048;28;20443;-77
2022/09/26 02:08:39;;;;;;;5.05;1.42;;;16.30;63.00;;;;;;5039447;28;20044;-78
2022/09/26 02:11:05;;;;;;;4.70;1.30;;;16.40;63.10;;;;;;5066786;28;20017;-76
2022/09/26 02:13:38;;;;;;;7.50;1.92;;;16.30;63.00;;;;;;5070017;28;20060;-77
2022/09/26 02:16:18;;;;;;;6.95;2.78;;;16.40;63.50;;;;;;5051679;28;20063;-78
2022/09/26 02:18:52;;;;;;;5.00;1.70;;;16.30;63.40;;;;;;5050299;28;20030;-77
2022/09/26 02:21:21;;;;;;;3.60;1.40;;;16.30;63.50;;;;;;5063511;28;20198;-78
2022/09/26 02:23:48;;;;;;;3.08;1.25;;;16.40;63.70;;;;;;5033017;28;20045;-77
2022/09/26 02:26:14;;;;;;;5.80;2.00;;;16.30;63.60;;;;;;5029232;28;20033;-79
2022/09/26 02:28:41;;;;;;;6.55;2.47;;;16.40;63.90;;;;;;5055936;28;20497;-76
2022/09/26 02:31:14;;;;;;;4.93;2.22;;;16.40;64.00;;;;;;5055436;28;20371;-78
2022/09/26 02:33:41;;;;;;;4.70;1.90;;;16.40;64.10;;;;;;5035363;28;20484;-78
2022/09/26 02:36:09;;;;;;;6.63;1.65;;;16.30;64.00;;;;;;5038759;28;20029;-78
2022/09/26 02:38:36;;;;;;;6.10;1.75;;;16.30;64.10;;;;;;5057362;28;20040;-77
2022/09/26 02:41:34;;;;;;;9.02;1.85;;;16.30;64.20;;;;;;5045557;28;20021;-77
2022/09/26 02:44:22;;;;;;;5.30;1.70;;;16.30;64.20;;;;;;5057793;28;20338;-78
2022/09/26 02:47:05;;;;;;;3.22;1.50;;;16.40;64.70;;;;;;5072396;28;20089;-77
2022/09/26 02:49:49;;;;;;;8.55;2.10;;;16.30;65.00;;;;;;5046931;28;20322;-78
2022/09/26 02:52:19;;;;;;;5.90;2.03;;;16.40;64.70;;;;;;5036113;28;20063;-78
2022/09/26 02:55:19;;;;;;;5.45;1.95;;;16.40;64.60;;;;;;5039727;28;20497;-78
2022/09/26 02:57:54;;;;;;;3.53;1.30;;;16.40;64.90;;;;;;5039391;28;20412;-78
2022/09/26 03:00:25;;;;;;;4.78;1.30;;;16.40;64.90;;;;;;5050290;28;20050;-79
2022/09/26 03:03:18;;;;;;;6.18;1.85;;;16.40;64.90;;;;;;5034155;28;20040;-78
2022/09/26 03:05:48;;;;;;;4.85;1.33;;;16.40;65.00;;;;;;5038180;28;20125;-79
2022/09/26 03:08:19;;;;;;;5.35;1.55;;;16.40;64.90;;;;;;5046612;28;20163;-78
2022/09/26 03:10:48;;;;;;;4.47;1.33;;;16.40;65.00;;;;;;5055025;28;20112;-78
2022/09/26 03:13:17;;;;;;;3.03;1.10;;;16.40;65.10;;;;;;5053280;28;20083;-77
2022/09/26 03:15:49;;;;;;;5.80;1.27;;;16.40;65.20;;;;;;5046711;28;20026;-78
2022/09/26 03:18:23;;;;;;;4.13;1.30;;;16.40;65.40;;;;;;5019781;28;20048;-78
2022/09/26 03:20:53;;;;;;;5.28;1.30;;;16.50;65.60;;;;;;5052520;28;20017;-77
2022/09/26 03:23:25;;;;;;;3.25;1.50;;;16.40;65.40;;;;;;5053495;28;20075;-77
2022/09/26 03:26:08;;;;;;;6.43;1.45;;;16.40;65.60;;;;;;5042519;28;20025;-77
2022/09/26 03:28:36;;;;;;;4.53;2.10;;;16.50;65.90;;;;;;5050795;28;20021;-77
2022/09/26 03:31:04;;;;;;;7.82;1.75;;;16.50;65.70;;;;;;5049710;28;20033;-77
2022/09/26 03:33:41;;;;;;;4.55;1.38;;;16.50;65.90;;;;;;5038983;28;20080;-77
2022/09/26 03:36:08;;;;;;;5.97;1.42;;;16.50;65.90;;;;;;5032232;28;20039;-77
2022/09/26 03:38:36;;;;;;;3.17;1.58;;;16.50;66.00;;;;;;5051419;28;20032;-78
2022/09/26 03:41:17;;;;;;;6.22;1.85;;;16.50;66.20;;;;;;5050763;28;20040;-78
2022/09/26 03:43:44;;;;;;;6.28;1.30;;;16.50;66.20;;;;;;5051454;28;20033;-78
2022/09/26 03:46:11;;;;;;;5.57;1.23;;;16.50;66.30;;;;;;5031753;28;20082;-77
2022/09/26 03:48:40;;;;;;;4.53;1.45;;;16.50;66.40;;;;;;5029410;28;20037;-77
2022/09/26 03:51:12;;;;;;;4.20;1.10;;;16.50;66.50;;;;;;5051175;28;20043;-78
2022/09/26 03:53:44;;;;;;;3.25;1.20;;;16.50;66.70;;;;;;5055198;28;20105;-77
2022/09/26 03:56:16;;;;;;;6.22;1.20;;;16.60;66.70;;;;;;5056734;28;20029;-78
2022/09/26 03:58:43;;;;;;;7.28;2.78;;;16.60;66.70;;;;;;5055372;28;20117;-78
2022/09/26 04:01:12;;;;;;;4.85;1.15;;;16.60;66.70;;;;;;5060977;28;20025;-78
2022/09/26 04:03:41;;;;;;;6.97;2.00;;;16.60;66.80;;;;;;5063222;28;20069;-79
2022/09/26 04:06:08;;;;;;;4.07;1.30;;;16.60;66.80;;;;;;5050340;28;20507;-78
2022/09/26 04:08:41;;;;;;;3.83;1.33;;;16.70;67.00;;;;;;5036656;28;20029;-77
2022/09/26 04:11:12;;;;;;;3.40;1.33;;;16.70;67.10;;;;;;5045192;28;20086;-78
2022/09/26 04:13:38;;;;;;;4.70;1.92;;;16.60;66.90;;;;;;5033422;28;20392;-77
2022/09/26 04:16:06;;;;;;;4.38;1.48;;;16.70;67.10;;;;;;5053279;28;20515;-77
2022/09/26 04:18:33;;;;;;;7.38;1.45;;;16.70;67.20;;;;;;5047830;28;20037;-77
2022/09/26 04:21:07;;;;;;;3.72;1.27;;;16.70;67.30;;;;;;5050212;28;20392;-77
2022/09/26 04:23:34;;;;;;;5.30;1.58;;;16.70;67.40;;;;;;5038891;28;20048;-77
2022/09/26 04:26:09;;;;;;;4.90;1.60;;;16.70;67.40;;;;;;5055984;28;20074;-77
2022/09/26 04:28:36;;;;;;;2.97;1.25;;;16.70;67.60;;;;;;5056791;28;20079;-77
2022/09/26 04:31:05;;;;;;;3.50;1.30;;;16.70;67.50;;;;;;5051107;28;20508;-78
2022/09/26 04:33:32;;;;;;;6.20;1.63;;;16.70;67.60;;;;;;5055122;28;20031;-76
2022/09/26 04:36:11;;;;;;;4.03;1.65;;;16.70;67.60;;;;;;5050757;28;20086;-78
2022/09/26 04:38:39;;;;;;;5.35;1.45;;;16.70;67.80;;;;;;5033969;28;20029;-76
2022/09/26 04:41:15;;;;;;;5.90;1.90;;;16.70;67.80;;;;;;5050576;28;20027;-77
2022/09/26 04:43:41;;;;;;;4.85;1.92;;;16.70;67.90;;;;;;5047023;28;20097;-76
2022/09/26 04:46:13;;;;;;;6.80;1.38;;;16.70;67.90;;;;;;5067486;28;20039;-76
2022/09/26 04:48:42;;;;;;;3.03;1.40;;;16.70;68.00;;;;;;5046091;28;20297;-77
2022/09/26 04:51:18;;;;;;;4.32;2.05;;;16.70;68.00;;;;;;5048424;28;20500;-77
2022/09/26 04:53:46;;;;;;;5.13;1.75;;;16.70;68.00;;;;;;5048055;28;20080;-76
2022/09/26 04:56:20;;;;;;;5.00;1.50;;;16.70;68.10;;;;;;5047537;28;20021;-77
2022/09/26 04:58:48;;;;;;;3.45;1.20;;;16.70;68.10;;;;;;5047226;28;20347;-76
2022/09/26 05:01:19;;;;;;;4.70;1.95;;;16.60;68.00;;;;;;5057966;28;20032;-77
2022/09/26 05:04:16;;;;;;;5.30;1.50;;;16.60;68.00;;;;;;5042152;28;20061;-76
2022/09/26 05:06:42;;;;;;;5.10;1.60;;;16.70;68.20;;;;;;5051408;28;20025;-77
2022/09/26 05:09:14;;;;;;;2.65;1.20;;;16.60;68.00;;;;;;5030838;28;20040;-77
2022/09/26 05:11:47;;;;;;;;;;;16.60;68.00;;;;;;5051881;28;20570;-77
2022/09/26 05:14:13;;;;;;;5.28;1.63;;;16.60;67.90;;;;;;5031102;28;19913;-77
2022/09/26 05:16:40;;;;;;;5.07;1.50;;;16.60;67.80;;;;;;5058759;28;20043;-77
2022/09/26 05:19:11;;;;;;;4.00;1.13;;;16.60;67.90;;;;;;5018654;28;20488;-78
2022/09/26 05:21:45;;;;;;;4.72;1.95;;;16.60;68.00;;;;;;5049622;28;20037;-77
2022/09/26 05:26:58;;;;;;;3.83;1.20;;;16.60;68.00;;;;;;5051192;28;20025;-76
2022/09/26 05:29:24;;;;;;;3.38;1.27;;;16.60;68.00;;;;;;5032327;28;20043;-78
2022/09/26 05:31:55;;;;;;;3.55;1.20;;;16.60;68.10;;;;;;5049414;28;20037;-77
2022/09/26 05:34:24;;;;;;;5.32;1.75;;;16.60;68.00;;;;;;5045316;28;20041;-78
2022/09/26 05:36:54;;;;;;;5.05;1.48;;;16.50;67.80;;;;;;5053628;28;20036;-79
2022/09/26 05:42:09;;;;;;;5.95;1.80;;;16.50;67.80;;;;;;5028551;28;20198;-82
2022/09/26 05:44:38;;;;;;;3.10;0.80;;;16.50;67.70;;;;;;5049992;28;20041;-79
2022/09/26 05:47:07;;;;;;;6.22;1.02;;;16.50;67.60;;;;;;5051246;28;20029;-77
2022/09/26 05:49:35;;;;;;;6.78;1.35;;;16.50;67.50;;;;;;5047779;28;20037;-77
2022/09/26 05:52:02;;;;;;;3.95;1.33;;;16.50;67.40;;;;;;5034126;28;20025;-81
2022/09/26 05:54:29;;;;;;;3.90;1.63;;;16.40;67.00;;;;;;5043235;28;20043;-81
2022/09/26 05:56:56;;;;;;;5.55;1.27;;;16.40;66.80;;;;;;5015924;28;20140;-80
2022/09/26 05:59:41;;;;;;;3.92;1.65;;;16.40;66.60;;;;;;5041942;28;20064;-81
2022/09/26 06:02:34;;;;;;;5.40;1.55;;;16.40;66.30;;;;;;5057013;28;20056;-78
2022/09/26 06:05:12;;;;;;;7.20;1.85;;;16.40;66.10;;;;;;5033368;28;20048;-78
2022/09/26 06:08:00;;;;;;;5.07;2.35;;;16.30;65.70;;;;;;5063588;28;20059;-81
2022/09/26 06:10:39;;;;;;;5.43;1.50;;;16.30;65.50;;;;;;5051008;28;20031;-79
2022/09/26 06:13:06;;;;;;;3.70;1.15;;;16.30;65.40;;;;;;5035518;28;20032;-76
2022/09/26 06:15:42;;;;;;;8.23;2.25;;;16.30;65.30;;;;;;5048078;28;20033;-78
2022/09/26 06:18:10;;;;;;;5.75;1.85;;;16.30;65.00;;;;;;5030899;28;20513;-76
2022/09/26 06:20:38;;;;;;;8.43;3.03;;;16.30;64.90;;;;;;5047413;28;20025;-77
2022/09/26 06:23:05;;;;;;;8.57;2.30;;;16.30;64.70;;;;;;5052146;28;20036;-78
2022/09/26 06:25:33;;;;;;;6.00;1.80;;;16.30;64.50;;;;;;5033032;28;20059;-80
2022/09/26 06:28:01;;;;;;;7.15;2.75;;;16.30;64.40;;;;;;5051699;28;20044;-80
2022/09/26 06:30:29;;;;;;;9.18;1.90;;;16.20;64.00;;;;;;5018291;28;20045;-81
2022/09/26 06:33:03;;;;;;;7.55;1.70;;;16.30;64.00;;;;;;5033524;28;20052;-81
2022/09/26 06:35:39;;;;;;;3.60;1.30;;;16.20;63.70;;;;;;5014591;28;20052;-81
2022/09/26 06:38:11;;;;;;;7.88;1.67;;;16.30;63.70;;;;;;5040770;28;20029;-80
2022/09/26 06:40:37;;;;;;;6.63;2.03;;;16.20;63.50;;;;;;5049241;28;20028;-81
2022/09/26 06:43:04;;;;;;;8.45;3.25;;;16.20;63.30;;;;;;5045482;28;20108;-81
2022/09/26 06:45:49;;;;;;;6.00;1.60;;;16.30;63.40;;;;;;5054515;28;20096;-81
2022/09/26 06:48:21;;;;;;;7.80;2.40;;;16.20;63.20;;;;;;5044162;28;20184;-83
2022/09/26 06:51:00;;;;;;;8.20;2.55;;;16.20;63.00;;;;;;5060018;28;20048;-78
2022/09/26 06:53:29;;;;;;;12.90;3.28;;;16.20;62.90;;;;;;5040783;28;20061;-77
2022/09/26 06:56:01;;;;;;;9.00;2.10;;;16.10;62.50;;;;;;5058213;28;20088;-78
2022/09/26 06:58:27;;;;;;;6.97;1.60;;;16.10;62.50;;;;;;5033857;28;20107;-81
2022/09/26 07:01:02;;;;;;;5.70;1.80;;;16.10;62.50;;;;;;5020535;28;20574;-81
2022/09/26 07:03:50;;;;;;;8.20;2.42;;;16.10;62.50;;;;;;5040670;28;20053;-80
2022/09/26 07:06:26;;;;;;;7.97;3.10;;;16.10;62.30;;;;;;5038151;28;20041;-81
2022/09/26 07:08:54;;;;;;;6.80;2.03;;;16.10;62.20;;;;;;5052836;28;20033;-79
2022/09/26 07:11:35;;;;;;;7.30;1.67;;;16.10;62.10;;;;;;5048655;28;20641;-81
2022/09/26 07:14:01;;;;;;;7.50;2.00;;;16.10;61.90;;;;;;5044280;28;20031;-80
2022/09/26 07:16:27;;;;;;;5.40;1.70;;;16.20;62.00;;;;;;5033830;28;20036;-81
2022/09/26 07:18:58;;;;;;;9.85;2.50;;;16.20;61.80;;;;;;5043399;28;20169;-79
2022/09/26 07:21:57;;;;;;;7.18;1.75;;;16.30;61.80;;;;;;5048958;28;20138;-80
2022/09/26 07:24:29;;;;;;;8.50;2.15;;;16.40;61.60;;;;;;5034201;28;20041;-81
2022/09/26 07:26:57;;;;;;;9.70;2.40;;;16.50;61.50;;;;;;5032166;28;20036;-81
2022/09/26 07:29:24;;;;;;;7.70;1.98;;;16.60;61.40;;;;;;5016646;28;20037;-79
2022/09/26 07:31:51;;;;;;;12.00;2.28;;;16.70;61.40;;;;;;5031585;28;20035;-81
2022/09/26 07:34:34;;;;;;;8.30;1.92;;;16.70;61.20;;;;;;5032275;28;20028;-80
2022/09/26 07:37:00;;;;;;;10.43;2.40;;;16.80;61.20;;;;;;5048490;28;20033;-81
2022/09/26 07:39:27;;;;;;;8.13;2.40;;;16.80;61.00;;;;;;5050835;28;20029;-80
2022/09/26 07:41:53;;;;;;;8.30;1.80;;;16.80;60.70;;;;;;5023546;28;20033;-81
2022/09/26 07:44:19;;;;;;;10.55;2.47;;;16.90;60.70;;;;;;5046227;28;20625;-79
2022/09/26 07:52:48;;;;;;;11.55;2.80;;;17.00;60.20;;;;;;5063190;28;20041;-80
2022/09/26 07:55:29;;;;;;;11.07;2.58;;;17.00;60.00;;;;;;5041601;28;20055;-81
2022/09/26 07:58:14;;;;;;;10.18;2.80;;;17.00;59.70;;;;;;5039695;28;20032;-81
2022/09/26 08:01:10;;;;;;;10.85;2.75;;;17.00;59.60;;;;;;5049262;28;20037;-80
2022/09/26 08:04:10;;;;;;;14.05;4.43;;;17.00;59.40;;;;;;5034461;28;20053;-80
2022/09/26 08:06:39;;;;;;;11.63;2.67;;;17.10;59.50;;;;;;5049059;28;20037;-82
2022/09/26 08:09:05;;;;;;;11.60;3.58;;;17.10;59.20;;;;;;5047585;28;20021;-81
2022/09/26 08:12:04;;;;;;;9.07;2.70;;;17.20;59.00;;;;;;5042449;28;20049;-81
2022/09/26 08:14:47;;;;;;;10.13;3.00;;;17.20;58.60;;;;;;5030886;28;20430;-80
2022/09/26 08:17:19;;;;;;;15.73;3.97;;;17.30;58.40;;;;;;5032524;28;20342;-80
2022/09/26 08:19:47;;;;;;;15.73;4.72;;;17.40;58.40;;;;;;5046043;28;20017;-80
2022/09/26 08:22:13;;;;;;;13.82;3.05;;;17.50;58.30;;;;;;5047302;28;20044;-78
2022/09/26 08:24:43;;;;;;;13.88;3.55;;;17.60;58.10;;;;;;5046814;28;20045;-77
2022/09/26 08:27:18;;;;;;;12.10;3.90;;;17.80;58.00;;;;;;5048231;28;20025;-76
2022/09/26 08:29:50;;;;;;;16.30;4.03;;;17.80;57.70;;;;;;5054931;28;20047;-78
2022/09/26 08:32:18;;;;;;;17.35;3.92;;;17.90;57.50;;;;;;5047609;28;20099;-81
2022/09/26 08:34:45;;;;;;;20.33;4.10;;;18.00;57.40;;;;;;5047253;28;20029;-79
2022/09/26 08:37:30;;;;;;;13.27;4.35;;;18.10;57.20;;;;;;5041894;28;20387;-81
2022/09/26 08:41:13;;;;;;;16.00;4.88;;;18.20;57.10;;;;;;5067451;28;20045;-79
2022/09/26 08:44:30;;;;;;;13.88;4.38;;;18.30;56.70;;;;;;5045682;28;20115;-77
2022/09/26 08:47:43;;;;;;;15.32;4.05;;;18.30;56.60;;;;;;5036647;28;20461;-80
2022/09/26 08:51:12;;;;;;;16.00;4.50;;;18.40;56.40;;;;;;5041927;28;20033;-79
2022/09/26 08:53:50;;;;;;;16.27;5.07;;;18.50;56.30;;;;;;5008934;28;20053;-78
2022/09/26 08:56:26;;;;;;;20.17;5.07;;;18.50;56.10;;;;;;5044011;28;20087;-81
2022/09/26 08:58:57;;;;;;;21.98;4.38;;;18.50;55.80;;;;;;5041211;28;20044;-79
2022/09/26 09:01:38;;;;;;;24.17;4.70;;;18.50;55.70;;;;;;5040803;28;20432;-80
2022/09/26 09:04:40;;;;;;;17.88;4.88;;;18.40;55.50;;;;;;5046779;28;20083;-80
2022/09/26 09:07:23;;;;;;;19.38;6.07;;;18.40;56.10;;;;;;5048164;28;20037;-81
2022/09/26 09:09:53;;;;;;;15.30;3.67;;;18.30;55.20;;;;;;5044012;28;20052;-79
2022/09/26 09:12:54;;;;;;;15.95;4.55;;;18.30;55.30;;;;;;5032799;28;20045;-80
2022/09/26 09:16:00;;;;;;;17.10;4.85;;;18.30;55.20;;;;;;5050511;28;20035;-79
2022/09/26 09:18:49;;;;;;;16.50;4.82;;;18.30;55.00;;;;;;5042335;28;20036;-80
2022/09/26 09:21:49;;;;;;;26.67;5.45;;;18.30;55.10;;;;;;5047577;28;20036;-80
2022/09/26 09:25:03;;;;;;;19.08;5.13;;;18.40;54.90;;;;;;5047370;28;20715;-82
2022/09/26 09:27:53;;;;;;;11.02;3.85;;;18.40;54.60;;;;;;5048761;28;20036;-79
2022/09/26 09:30:28;;;;;;;15.02;4.00;;;18.40;55.00;;;;;;5056217;28;20025;-80
2022/09/26 09:33:03;;;;;;;12.27;4.45;;;18.40;54.60;;;;;;5047066;28;20040;-80
2022/09/26 09:35:51;;;;;;;14.50;4.35;;;18.40;54.50;;;;;;5043251;28;20090;-80
2022/09/26 09:38:30;;;;;;;13.93;3.75;;;18.40;54.40;;;;;;5033475;28;20078;-81
2022/09/26 09:41:24;;;;;;;14.07;4.18;;;18.50;54.50;;;;;;5034606;28;20040;-81
2022/09/26 09:44:08;;;;;;;9.45;2.50;;;18.50;54.20;;;;;;5047751;28;20479;-79
2022/09/26 09:46:42;;;;;;;11.05;2.97;;;18.60;54.20;;;;;;5052084;28;20052;-78
2022/09/26 09:49:09;;;;;;;8.45;3.25;;;18.60;54.10;;;;;;5045018;28;20026;-77
2022/09/26 09:51:54;;;;;;;12.63;3.00;;;18.70;54.30;;;;;;5051055;28;20045;-78
2022/09/26 09:54:39;;;;;;;11.25;3.22;;;18.70;54.00;;;;;;5052337;28;20049;-78
2022/09/26 09:57:25;;;;;;;16.33;5.13;;;18.80;54.10;;;;;;5034561;28;20106;-77
2022/09/26 10:00:08;;;;;;;8.75;2.70;;;18.90;54.20;;;;;;5062445;28;20052;-78
2022/09/26 10:03:25;;;;;;;7.28;2.20;;;18.90;54.10;;;;;;5065217;28;20111;-79
2022/09/26 10:06:00;;;;;;;9.35;2.35;;;19.00;53.80;;;;;;5045676;28;20564;-80
2022/09/26 10:08:34;;;;;;;10.35;2.55;;;19.10;53.90;;;;;;5056003;28;20085;-78
2022/09/26 10:11:28;;;;;;;7.63;2.08;;;19.20;53.80;;;;;;5053758;28;20033;-78
2022/09/26 10:14:11;;;;;;;7.32;2.63;;;19.30;53.70;;;;;;5053816;28;20181;-79
2022/09/26 10:17:16;;;;;;;8.52;3.08;;;19.40;53.70;;;;;;5035604;28;20040;-79
2022/09/26 10:20:04;;;;;;;6.88;2.42;;;19.40;53.40;;;;;;5047570;28;20029;-78
2022/09/26 10:22:44;;;;;;;7.10;2.00;;;19.40;53.60;;;;;;5049149;28;20025;-76
2022/09/26 10:25:25;;;;;;;7.60;2.22;;;19.40;53.50;;;;;;5048329;28;20056;-76
2022/09/26 10:27:56;;;;;;;6.85;2.25;;;19.30;53.50;;;;;;5031692;28;20032;-77
2022/09/26 10:30:30;;;;;;;8.35;2.88;;;19.30;53.20;;;;;;5049090;28;20044;-77
2022/09/26 10:33:03;;;;;;;7.65;2.65;;;19.30;53.20;;;;;;5029973;28;20032;-77
2022/09/26 10:35:45;;;;;;;9.48;2.28;;;19.20;52.90;;;;;;5035590;28;20033;-77
2022/09/26 10:38:23;;;;;;;7.22;2.40;;;19.20;52.80;;;;;;5049915;28;20039;-77
2022/09/26 10:41:23;;;;;;;8.27;1.80;;;19.30;53.00;;;;;;5051943;28;20040;-80
2022/09/26 10:43:56;;;;;;;6.20;1.98;;;19.40;52.80;;;;;;5029755;28;20037;-78
2022/09/26 10:47:09;;;;;;;5.50;2.03;;;19.50;52.90;;;;;;5039546;28;20025;-79
2022/09/26 10:50:01;;;;;;;7.10;2.00;;;19.70;52.90;;;;;;5053795;28;20040;-77
2022/09/26 10:52:55;;;;;;;3.93;1.27;;;19.80;52.80;;;;;;5061322;28;20056;-78
2022/09/26 10:55:38;;;;;;;5.30;1.70;;;19.90;52.80;;;;;;5053208;28;20651;-78
2022/09/26 10:58:12;;;;;;;10.20;2.50;;;19.90;52.50;;;;;;5052971;28;20188;-79
2022/09/26 11:00:41;;;;;;;;;;;20.00;52.50;;;;;;5048338;28;20025;-77
2022/09/26 11:03:16;;;;;;;4.25;1.08;;;20.00;52.50;;;;;;5058716;28;20292;-78
2022/09/26 11:06:23;;;;;;;6.22;1.80;;;20.00;52.60;;;;;;5035669;28;20394;-79
2022/09/26 11:08:55;;;;;;;4.65;1.60;;;20.10;52.50;;;;;;5047328;28;20032;-79
2022/09/26 11:11:41;;;;;;;4.35;1.80;;;20.20;52.40;;;;;;5049415;28;20373;-81
2022/09/26 11:14:08;;;;;;;7.15;2.35;;;20.50;52.60;;;;;;5028578;28;20030;-78
2022/09/26 11:16:42;;;;;;;4.70;1.83;;;20.60;52.20;;;;;;5043478;28;20459;-79
2022/09/26 11:19:27;;;;;;;5.65;1.60;;;20.70;51.90;;;;;;5033555;28;20492;-79
2022/09/26 11:22:24;;;;;;;5.43;1.20;;;20.80;51.90;;;;;;5031109;28;20059;-77
2022/09/26 11:25:08;;;;;;;4.95;1.50;;;20.80;51.50;;;;;;5049616;28;20094;-79
2022/09/26 11:27:48;;;;;;;5.22;1.40;;;21.00;51.90;;;;;;5034100;28;20038;-78
2022/09/26 11:30:28;;;;;;;6.70;1.63;;;21.00;51.50;;;;;;5051569;28;20459;-76
2022/09/26 11:33:07;;;;;;;6.40;1.63;;;21.10;51.70;;;;;;5034716;28;20684;-82
2022/09/26 11:36:13;;;;;;;6.82;1.73;;;21.20;51.60;;;;;;5049701;28;20025;-80
2022/09/26 11:38:56;;;;;;;5.22;2.03;;;21.20;51.00;;;;;;5035402;28;20036;-80
2022/09/26 11:41:44;;;;;;;5.88;1.58;;;21.30;51.10;;;;;;5049044;28;20534;-80
2022/09/26 11:44:28;;;;;;;6.03;1.90;;;21.20;50.90;;;;;;5014459;28;20064;-80
2022/09/26 11:47:22;;;;;;;4.70;1.33;;;21.20;51.00;;;;;;5036771;28;20434;-80
2022/09/26 11:50:19;;;;;;;3.22;1.00;;;21.30;51.10;;;;;;5024658;28;20040;-78
2022/09/26 11:53:23;;;;;;;7.25;1.60;;;21.50;50.80;;;;;;5047246;28;20041;-80
2022/09/26 11:56:23;;;;;;;3.60;1.40;;;21.60;50.90;;;;;;5047622;28;20270;-78
2022/09/26 11:59:05;;;;;;;4.40;1.08;;;21.70;50.40;;;;;;5050392;28;20489;-79
2022/09/26 12:02:16;;;;;;;4.43;1.00;;;21.70;50.30;;;;;;5052483;28;20032;-80
2022/09/26 12:05:18;;;;;;;5.15;1.38;;;21.60;49.90;;;;;;5031375;28;20100;-80
2022/09/26 12:08:02;;;;;;;3.80;1.40;;;21.50;49.80;;;;;;5029820;28;20033;-82
2022/09/26 12:10:49;;;;;;;3.20;0.98;;;21.40;49.90;;;;;;5049809;28;20078;-79
2022/09/26 12:13:36;;;;;;;3.20;1.00;;;21.30;49.80;;;;;;5051961;28;20029;-80
2022/09/26 12:16:23;;;;;;;4.07;0.82;;;21.10;49.60;;;;;;5052015;28;20048;-80
2022/09/26 12:19:13;;;;;;;5.20;1.52;;;21.10;49.60;;;;;;5037774;28;20025;-80
2022/09/26 12:22:29;;;;;;;2.95;0.82;;;21.10;49.10;;;;;;5050082;28;20452;-80
2022/09/26 12:25:06;;;;;;;3.60;0.88;;;21.10;48.70;;;;;;5042146;28;20052;-80
2022/09/26 12:28:02;;;;;;;3.65;0.93;;;21.30;49.00;;;;;;5050307;28;20037;-78
2022/09/26 12:30:35;;;;;;;4.75;1.70;;;21.30;48.70;;;;;;5049519;28;20172;-80
2022/09/26 12:33:36;;;;;;;3.58;1.17;;;21.30;48.60;;;;;;5044295;28;20098;-79
2022/09/26 12:36:03;;;;;;;3.35;1.27;;;21.30;48.20;;;;;;5046340;28;20036;-76
2022/09/26 12:38:53;;;;;;;3.25;1.05;;;21.20;48.30;;;;;;5048458;28;20029;-76
2022/09/26 12:41:53;;;;;;;5.25;1.23;;;21.10;47.90;;;;;;5046302;28;20037;-77
2022/09/26 12:44:48;;;;;;;2.03;0.75;;;21.10;48.20;;;;;;5050620;28;20110;-79
2022/09/26 12:47:35;;;;;;;2.30;0.95;;;21.20;48.20;;;;;;5043858;28;20049;-78
2022/09/26 12:50:45;;;;;;;2.17;0.77;;;21.30;48.30;;;;;;5041899;28;20048;-77
2022/09/26 12:53:47;;;;;;;2.50;1.00;;;21.50;48.10;;;;;;5014239;28;20049;-79
2022/09/26 12:56:21;;;;;;;3.53;1.30;;;21.50;48.00;;;;;;5043378;28;20460;-80
2022/09/26 12:58:56;;;;;;;3.80;0.95;;;21.60;48.10;;;;;;5049070;28;20534;-79
2022/09/26 13:02:01;;;;;;;6.95;1.00;;;21.60;48.00;;;;;;5050349;28;20046;-79
2022/09/26 13:04:43;;;;;;;2.22;0.90;;;21.70;47.70;;;;;;5039829;28;20370;-79
2022/09/26 13:07:21;;;;;;;2.58;0.80;;;21.80;47.80;;;;;;5043390;28;20086;-76
2022/09/26 13:10:03;;;;;;;3.63;0.90;;;22.00;47.80;;;;;;5048262;28;20043;-76
2022/09/26 13:12:41;;;;;;;3.78;1.15;;;22.20;47.70;;;;;;5050117;28;20392;-79
2022/09/26 13:15:33;;;;;;;3.13;1.00;;;22.40;47.40;;;;;;5039306;28;20021;-76
2022/09/26 13:18:09;;;;;;;6.03;1.52;;;22.50;47.40;;;;;;5041458;28;20033;-77
2022/09/26 13:20:43;;;;;;;3.03;1.20;;;22.60;47.20;;;;;;5049060;28;20032;-79
2022/09/26 13:23:26;;;;;;;2.47;1.00;;;22.60;47.10;;;;;;5054894;28;20031;-80
2022/09/26 13:25:55;;;;;;;4.53;0.98;;;22.80;47.40;;;;;;5032257;28;20041;-77
2022/09/26 13:28:53;;;;;;;2.20;1.08;;;22.90;47.40;;;;;;5028708;28;20041;-75
2022/09/26 13:31:28;;;;;;;3.38;0.77;;;23.00;46.90;;;;;;5014334;28;20029;-79
2022/09/26 13:34:00;;;;;;;6.50;0.90;;;23.20;47.20;;;;;;5030957;28;20029;-77
2022/09/26 13:36:30;;;;;;;3.58;1.10;;;23.30;47.00;;;;;;5047373;28;20032;-78
2022/09/26 13:39:07;;;;;;;3.90;1.45;;;23.40;47.40;;;;;;5017725;28;20045;-79
2022/09/26 13:41:45;;;;;;;3.38;1.20;;;23.60;46.50;;;;;;5046519;28;20501;-78
2022/09/26 13:44:27;;;;;;;2.45;0.95;;;23.70;46.40;;;;;;5050621;28;20225;-78
2022/09/26 13:47:27;;;;;;;2.00;0.90;;;23.80;46.40;;;;;;5025261;28;20036;-76
2022/09/26 13:50:22;;;;;;;2.33;0.70;;;24.00;46.20;;;;;;5042150;28;20027;-77
2022/09/26 13:52:53;;;;;;;2.15;0.98;;;24.10;45.70;;;;;;5053821;28;20415;-76